sensor_id;sensor_type;location;lat;lon;timestamp;temperature;humidity
4647;DHT22;2336;47.822;7.564;2023-09-12T00:01:20;19.50;99.90
4647;DHT22;2336;47.822;7.564;2023-09-12T00:03:47;19.60;99.90
4647;DHT22;2336;47.822;7.564;2023-09-12T00:06:14;19.90;99.90
4647;DHT22;2336;47.822;7.564;2023-09-12T00:08:41;20.00;99.90
4647;DHT22;2336;47.822;7.564;2023-09-12T00:11:10;20.10;99.90
4647;DHT22;2336;47.822;7.564;2023-09-12T00:13:38;20.20;99.90
4647;DHT22;2336;47.822;7.564;2023-09-12T00:16:06;20.10;99.90
4647;DHT22;2336;47.822;7.564;2023-09-12T00:18:33;20.10;99.90
4647;DHT22;2336;47.822;7.564;2023-09-12T00:21:01;20.10;99.90
4647;DHT22;2336;47.822;7.564;2023-09-12T00:23:28;20.20;99.90
4647;DHT22;2336;47.822;7.564;2023-09-12T00:25:55;20.20;99.90
4647;DHT22;2336;47.822;7.564;2023-09-12T00:28:23;20.20;99.90
4647;DHT22;2336;47.822;7.564;2023-09-12T00:30:51;20.20;99.90
4647;DHT22;2336;47.822;7.564;2023-09-12T00:33:17;20.30;99.90
4647;DHT22;2336;47.822;7.564;2023-09-12T00:35:44;20.30;99.90
4647;DHT22;2336;47.822;7.564;2023-09-12T00:38:11;20.30;99.90
4647;DHT22;2336;47.822;7.564;2023-09-12T00:40:38;20.30;99.90
4647;DHT22;2336;47.822;7.564;2023-09-12T00:43:05;20.30;99.90
4647;DHT22;2336;47.822;7.564;2023-09-12T00:45:33;20.30;99.90
4647;DHT22;2336;47.822;7.564;2023-09-12T00:48:01;20.30;99.90
4647;DHT22;2336;47.822;7.564;2023-09-12T00:50:30;20.30;99.90
4647;DHT22;2336;47.822;7.564;2023-09-12T00:52:57;20.30;99.90
4647;DHT22;2336;47.822;7.564;2023-09-12T00:55:24;20.30;99.90
4647;DHT22;2336;47.822;7.564;2023-09-12T00:57:53;20.30;99.90
4647;DHT22;2336;47.822;7.564;2023-09-12T01:00:20;20.40;99.90
4647;DHT22;2336;47.822;7.564;2023-09-12T01:02:48;20.40;99.90
4647;DHT22;2336;47.822;7.564;2023-09-12T01:05:17;20.40;99.90
4647;DHT22;2336;47.822;7.564;2023-09-12T01:07:44;20.40;99.90
4647;DHT22;2336;47.822;7.564;2023-09-12T01:10:11;20.40;99.90
4647;DHT22;2336;47.822;7.564;2023-09-12T01:12:38;20.40;99.90
4647;DHT22;2336;47.822;7.564;2023-09-12T01:15:05;20.40;99.90
4647;DHT22;2336;47.822;7.564;2023-09-12T01:17:39;20.40;99.90
4647;DHT22;2336;47.822;7.564;2023-09-12T01:20:11;20.40;99.90
4647;DHT22;2336;47.822;7.564;2023-09-12T01:22:55;20.40;99.90
4647;DHT22;2336;47.822;7.564;2023-09-12T01:25:42;20.40;99.90
4647;DHT22;2336;47.822;7.564;2023-09-12T01:28:16;20.40;99.90
4647;DHT22;2336;47.822;7.564;2023-09-12T01:30:44;20.50;99.90
4647;DHT22;2336;47.822;7.564;2023-09-12T01:33:12;20.50;99.90
4647;DHT22;2336;47.822;7.564;2023-09-12T01:35:39;20.50;99.90
4647;DHT22;2336;47.822;7.564;2023-09-12T01:38:06;20.50;99.90
4647;DHT22;2336;47.822;7.564;2023-09-12T01:40:39;20.50;99.90
4647;DHT22;2336;47.822;7.564;2023-09-12T01:43:08;20.50;99.90
4647;DHT22;2336;47.822;7.564;2023-09-12T01:45:36;20.40;99.90
4647;DHT22;2336;47.822;7.564;2023-09-12T01:48:05;20.40;99.90
4647;DHT22;2336;47.822;7.564;2023-09-12T01:50:33;20.40;99.90
4647;DHT22;2336;47.822;7.564;2023-09-12T01:53:00;20.40;99.90
4647;DHT22;2336;47.822;7.564;2023-09-12T01:55:28;20.30;99.90
4647;DHT22;2336;47.822;7.564;2023-09-12T01:57:55;20.30;99.90
4647;DHT22;2336;47.822;7.564;2023-09-12T02:00:22;20.30;99.90
4647;DHT22;2336;47.822;7.564;2023-09-12T02:02:50;20.40;99.90
4647;DHT22;2336;47.822;7.564;2023-09-12T02:05:19;20.40;99.90
4647;DHT22;2336;47.822;7.564;2023-09-12T02:07:47;20.40;99.90
4647;DHT22;2336;47.822;7.564;2023-09-12T02:10:14;20.40;99.90
4647;DHT22;2336;47.822;7.564;2023-09-12T02:12:41;20.40;99.90
4647;DHT22;2336;47.822;7.564;2023-09-12T02:15:08;20.40;99.90
4647;DHT22;2336;47.822;7.564;2023-09-12T02:17:35;20.40;99.90
4647;DHT22;2336;47.822;7.564;2023-09-12T02:20:07;20.40;99.90
4647;DHT22;2336;47.822;7.564;2023-09-12T02:22:34;20.40;99.90
4647;DHT22;2336;47.822;7.564;2023-09-12T02:25:02;20.40;99.90
4647;DHT22;2336;47.822;7.564;2023-09-12T02:27:30;20.40;99.90
4647;DHT22;2336;47.822;7.564;2023-09-12T02:29:57;20.40;99.90
4647;DHT22;2336;47.822;7.564;2023-09-12T02:32:23;20.40;99.90
4647;DHT22;2336;47.822;7.564;2023-09-12T02:34:50;20.30;99.90
4647;DHT22;2336;47.822;7.564;2023-09-12T02:37:20;20.30;99.90
4647;DHT22;2336;47.822;7.564;2023-09-12T02:39:46;20.30;99.90
4647;DHT22;2336;47.822;7.564;2023-09-12T02:42:13;20.30;99.90
4647;DHT22;2336;47.822;7.564;2023-09-12T02:44:40;20.30;99.90
4647;DHT22;2336;47.822;7.564;2023-09-12T02:47:07;20.30;99.90
4647;DHT22;2336;47.822;7.564;2023-09-12T02:49:34;20.30;99.90
4647;DHT22;2336;47.822;7.564;2023-09-12T02:52:00;20.30;99.90
4647;DHT22;2336;47.822;7.564;2023-09-12T02:54:29;20.30;99.90
4647;DHT22;2336;47.822;7.564;2023-09-12T02:56:55;20.20;99.90
4647;DHT22;2336;47.822;7.564;2023-09-12T02:59:22;20.20;99.90
4647;DHT22;2336;47.822;7.564;2023-09-12T03:01:49;20.20;99.90
4647;DHT22;2336;47.822;7.564;2023-09-12T03:04:16;20.30;99.90
4647;DHT22;2336;47.822;7.564;2023-09-12T03:06:42;20.30;99.90
4647;DHT22;2336;47.822;7.564;2023-09-12T03:09:10;20.30;99.90
4647;DHT22;2336;47.822;7.564;2023-09-12T03:11:39;20.30;99.90
4647;DHT22;2336;47.822;7.564;2023-09-12T03:14:06;20.30;99.90
4647;DHT22;2336;47.822;7.564;2023-09-12T03:16:32;20.20;99.90
4647;DHT22;2336;47.822;7.564;2023-09-12T03:18:59;20.20;99.90
4647;DHT22;2336;47.822;7.564;2023-09-12T03:21:26;20.20;99.90
4647;DHT22;2336;47.822;7.564;2023-09-12T03:23:53;20.20;99.90
4647;DHT22;2336;47.822;7.564;2023-09-12T03:26:20;20.20;99.90
4647;DHT22;2336;47.822;7.564;2023-09-12T03:28:48;20.10;99.90
4647;DHT22;2336;47.822;7.564;2023-09-12T03:31:15;20.10;99.90
4647;DHT22;2336;47.822;7.564;2023-09-12T03:33:43;20.10;99.90
4647;DHT22;2336;47.822;7.564;2023-09-12T03:36:15;20.10;99.90
4647;DHT22;2336;47.822;7.564;2023-09-12T03:38:42;20.20;99.90
4647;DHT22;2336;47.822;7.564;2023-09-12T03:41:09;20.20;99.90
4647;DHT22;2336;47.822;7.564;2023-09-12T03:43:36;20.20;99.90
4647;DHT22;2336;47.822;7.564;2023-09-12T03:46:04;20.30;99.90
4647;DHT22;2336;47.822;7.564;2023-09-12T03:48:31;20.30;99.90
4647;DHT22;2336;47.822;7.564;2023-09-12T03:50:58;20.30;99.90
4647;DHT22;2336;47.822;7.564;2023-09-12T03:53:25;20.50;99.90
4647;DHT22;2336;47.822;7.564;2023-09-12T03:55:53;20.50;99.90
4647;DHT22;2336;47.822;7.564;2023-09-12T03:58:20;20.60;99.90
4647;DHT22;2336;47.822;7.564;2023-09-12T04:00:47;20.60;99.90
4647;DHT22;2336;47.822;7.564;2023-09-12T04:03:15;20.60;99.90
4647;DHT22;2336;47.822;7.564;2023-09-12T04:05:42;20.60;99.90
4647;DHT22;2336;47.822;7.564;2023-09-12T04:08:09;20.60;99.90
4647;DHT22;2336;47.822;7.564;2023-09-12T04:10:36;20.60;99.90
4647;DHT22;2336;47.822;7.564;2023-09-12T04:13:03;20.60;99.90
4647;DHT22;2336;47.822;7.564;2023-09-12T04:15:29;20.60;99.90
4647;DHT22;2336;47.822;7.564;2023-09-12T04:17:56;20.60;99.90
4647;DHT22;2336;47.822;7.564;2023-09-12T04:20:24;20.60;99.90
4647;DHT22;2336;47.822;7.564;2023-09-12T04:22:51;20.50;99.90
4647;DHT22;2336;47.822;7.564;2023-09-12T04:25:18;20.50;99.90
4647;DHT22;2336;47.822;7.564;2023-09-12T04:27:45;20.50;99.90
4647;DHT22;2336;47.822;7.564;2023-09-12T04:30:12;20.50;99.90
4647;DHT22;2336;47.822;7.564;2023-09-12T04:32:39;20.50;99.90
4647;DHT22;2336;47.822;7.564;2023-09-12T04:35:07;20.40;99.90
4647;DHT22;2336;47.822;7.564;2023-09-12T04:37:35;20.40;99.90
4647;DHT22;2336;47.822;7.564;2023-09-12T04:40:03;20.40;99.90
4647;DHT22;2336;47.822;7.564;2023-09-12T04:42:32;20.30;99.90
4647;DHT22;2336;47.822;7.564;2023-09-12T04:44:59;20.30;99.90
4647;DHT22;2336;47.822;7.564;2023-09-12T04:47:26;20.30;99.90
4647;DHT22;2336;47.822;7.564;2023-09-12T04:49:53;20.30;99.90
4647;DHT22;2336;47.822;7.564;2023-09-12T04:52:19;20.30;99.90
4647;DHT22;2336;47.822;7.564;2023-09-12T04:54:48;20.20;99.90
4647;DHT22;2336;47.822;7.564;2023-09-12T04:57:14;20.20;99.90
4647;DHT22;2336;47.822;7.564;2023-09-12T04:59:41;20.20;99.90
4647;DHT22;2336;47.822;7.564;2023-09-12T05:02:08;20.20;99.90
4647;DHT22;2336;47.822;7.564;2023-09-12T05:04:35;20.10;99.90
4647;DHT22;2336;47.822;7.564;2023-09-12T05:07:01;20.10;99.90
4647;DHT22;2336;47.822;7.564;2023-09-12T05:09:28;20.10;99.90
4647;DHT22;2336;47.822;7.564;2023-09-12T05:11:56;20.00;99.90
4647;DHT22;2336;47.822;7.564;2023-09-12T05:14:23;20.00;99.90
4647;DHT22;2336;47.822;7.564;2023-09-12T05:16:50;20.00;99.90
4647;DHT22;2336;47.822;7.564;2023-09-12T05:19:17;20.00;99.90
4647;DHT22;2336;47.822;7.564;2023-09-12T05:21:43;20.00;99.90
4647;DHT22;2336;47.822;7.564;2023-09-12T05:24:10;20.00;99.90
4647;DHT22;2336;47.822;7.564;2023-09-12T05:26:37;20.00;99.90
4647;DHT22;2336;47.822;7.564;2023-09-12T05:29:05;20.00;99.90
4647;DHT22;2336;47.822;7.564;2023-09-12T05:31:32;19.90;99.90
4647;DHT22;2336;47.822;7.564;2023-09-12T05:33:59;20.00;99.90
4647;DHT22;2336;47.822;7.564;2023-09-12T05:36:26;20.00;99.90
4647;DHT22;2336;47.822;7.564;2023-09-12T05:38:52;20.10;99.90
4647;DHT22;2336;47.822;7.564;2023-09-12T05:41:19;20.10;99.90
4647;DHT22;2336;47.822;7.564;2023-09-12T05:43:46;20.10;99.90
4647;DHT22;2336;47.822;7.564;2023-09-12T05:46:14;20.20;99.90
4647;DHT22;2336;47.822;7.564;2023-09-12T05:48:41;20.30;99.90
4647;DHT22;2336;47.822;7.564;2023-09-12T05:51:08;20.30;99.90
4647;DHT22;2336;47.822;7.564;2023-09-12T05:53:34;20.30;99.90
4647;DHT22;2336;47.822;7.564;2023-09-12T05:56:01;20.40;99.90
4647;DHT22;2336;47.822;7.564;2023-09-12T05:58:28;20.40;99.90
4647;DHT22;2336;47.822;7.564;2023-09-12T06:00:55;20.40;99.90
4647;DHT22;2336;47.822;7.564;2023-09-12T06:03:23;20.40;99.90
4647;DHT22;2336;47.822;7.564;2023-09-12T06:05:50;20.50;99.90
4647;DHT22;2336;47.822;7.564;2023-09-12T06:08:17;20.50;99.90
4647;DHT22;2336;47.822;7.564;2023-09-12T06:10:44;20.60;99.90
4647;DHT22;2336;47.822;7.564;2023-09-12T06:13:10;20.60;99.90
4647;DHT22;2336;47.822;7.564;2023-09-12T06:15:38;20.70;99.90
4647;DHT22;2336;47.822;7.564;2023-09-12T06:18:06;20.80;99.90
4647;DHT22;2336;47.822;7.564;2023-09-12T06:20:34;20.90;99.90
4647;DHT22;2336;47.822;7.564;2023-09-12T06:23:01;21.00;99.90
4647;DHT22;2336;47.822;7.564;2023-09-12T06:25:29;21.10;99.90
4647;DHT22;2336;47.822;7.564;2023-09-12T06:27:55;21.30;99.90
4647;DHT22;2336;47.822;7.564;2023-09-12T06:30:22;21.40;99.90
4647;DHT22;2336;47.822;7.564;2023-09-12T06:32:49;21.50;99.90
4647;DHT22;2336;47.822;7.564;2023-09-12T06:35:16;21.60;99.90
4647;DHT22;2336;47.822;7.564;2023-09-12T06:37:44;21.60;99.90
4647;DHT22;2336;47.822;7.564;2023-09-12T06:40:12;21.70;99.90
4647;DHT22;2336;47.822;7.564;2023-09-12T06:42:39;21.80;99.90
4647;DHT22;2336;47.822;7.564;2023-09-12T06:45:07;21.90;99.90
4647;DHT22;2336;47.822;7.564;2023-09-12T06:47:33;22.00;99.90
4647;DHT22;2336;47.822;7.564;2023-09-12T06:50:01;22.00;99.90
4647;DHT22;2336;47.822;7.564;2023-09-12T06:52:28;22.00;99.90
4647;DHT22;2336;47.822;7.564;2023-09-12T06:54:56;22.00;99.90
4647;DHT22;2336;47.822;7.564;2023-09-12T06:57:23;22.00;99.90
4647;DHT22;2336;47.822;7.564;2023-09-12T06:59:50;22.00;99.90
4647;DHT22;2336;47.822;7.564;2023-09-12T07:02:16;22.00;99.90
4647;DHT22;2336;47.822;7.564;2023-09-12T07:04:44;22.00;99.90
4647;DHT22;2336;47.822;7.564;2023-09-12T07:07:10;22.00;99.90
4647;DHT22;2336;47.822;7.564;2023-09-12T07:09:37;21.90;99.90
4647;DHT22;2336;47.822;7.564;2023-09-12T07:12:06;21.90;99.90
4647;DHT22;2336;47.822;7.564;2023-09-12T07:14:33;21.90;99.90
4647;DHT22;2336;47.822;7.564;2023-09-12T07:16:59;21.90;99.90
4647;DHT22;2336;47.822;7.564;2023-09-12T07:19:26;22.00;99.90
4647;DHT22;2336;47.822;7.564;2023-09-12T07:21:54;22.20;99.90
4647;DHT22;2336;47.822;7.564;2023-09-12T07:24:24;22.20;99.90
4647;DHT22;2336;47.822;7.564;2023-09-12T07:26:51;22.30;99.90
4647;DHT22;2336;47.822;7.564;2023-09-12T07:29:19;22.40;99.90
4647;DHT22;2336;47.822;7.564;2023-09-12T07:31:46;22.50;99.90
4647;DHT22;2336;47.822;7.564;2023-09-12T07:34:13;22.60;99.90
4647;DHT22;2336;47.822;7.564;2023-09-12T07:36:40;22.70;99.90
4647;DHT22;2336;47.822;7.564;2023-09-12T07:39:07;22.90;99.90
4647;DHT22;2336;47.822;7.564;2023-09-12T07:41:34;23.00;99.90
4647;DHT22;2336;47.822;7.564;2023-09-12T07:44:01;23.10;99.90
4647;DHT22;2336;47.822;7.564;2023-09-12T07:46:31;23.20;99.90
4647;DHT22;2336;47.822;7.564;2023-09-12T07:48:58;23.20;99.90
4647;DHT22;2336;47.822;7.564;2023-09-12T07:51:25;23.20;99.90
4647;DHT22;2336;47.822;7.564;2023-09-12T07:53:51;23.30;99.90
4647;DHT22;2336;47.822;7.564;2023-09-12T07:56:18;23.40;99.90
4647;DHT22;2336;47.822;7.564;2023-09-12T07:58:45;23.40;99.90
4647;DHT22;2336;47.822;7.564;2023-09-12T08:01:12;23.60;99.90
4647;DHT22;2336;47.822;7.564;2023-09-12T08:03:42;23.70;99.90
4647;DHT22;2336;47.822;7.564;2023-09-12T08:06:09;23.80;99.90
4647;DHT22;2336;47.822;7.564;2023-09-12T08:08:36;24.00;99.90
4647;DHT22;2336;47.822;7.564;2023-09-12T08:11:03;24.10;99.90
4647;DHT22;2336;47.822;7.564;2023-09-12T08:13:30;24.20;99.90
4647;DHT22;2336;47.822;7.564;2023-09-12T08:15:57;24.40;99.90
4647;DHT22;2336;47.822;7.564;2023-09-12T08:18:27;24.40;99.90
4647;DHT22;2336;47.822;7.564;2023-09-12T08:20:56;24.60;99.90
4647;DHT22;2336;47.822;7.564;2023-09-12T08:23:23;24.70;99.90
4647;DHT22;2336;47.822;7.564;2023-09-12T08:25:50;24.70;99.90
4647;DHT22;2336;47.822;7.564;2023-09-12T08:28:17;24.80;99.90
4647;DHT22;2336;47.822;7.564;2023-09-12T08:30:44;24.90;99.90
4647;DHT22;2336;47.822;7.564;2023-09-12T08:33:11;24.90;99.90
4647;DHT22;2336;47.822;7.564;2023-09-12T08:35:38;25.10;99.90
4647;DHT22;2336;47.822;7.564;2023-09-12T08:38:07;25.20;99.90
4647;DHT22;2336;47.822;7.564;2023-09-12T08:40:34;25.30;99.90
4647;DHT22;2336;47.822;7.564;2023-09-12T08:43:02;25.40;99.20
4647;DHT22;2336;47.822;7.564;2023-09-12T08:45:30;25.60;99.30
4647;DHT22;2336;47.822;7.564;2023-09-12T08:47:59;25.50;99.90
4647;DHT22;2336;47.822;7.564;2023-09-12T08:50:27;25.50;99.80
4647;DHT22;2336;47.822;7.564;2023-09-12T08:52:56;25.40;99.90
4647;DHT22;2336;47.822;7.564;2023-09-12T08:55:25;25.30;99.90
4647;DHT22;2336;47.822;7.564;2023-09-12T08:57:53;25.30;99.90
4647;DHT22;2336;47.822;7.564;2023-09-12T09:00:22;25.40;99.90
4647;DHT22;2336;47.822;7.564;2023-09-12T09:02:50;25.40;99.40
4647;DHT22;2336;47.822;7.564;2023-09-12T09:05:17;25.50;99.60
4647;DHT22;2336;47.822;7.564;2023-09-12T09:07:47;25.60;99.60
4647;DHT22;2336;47.822;7.564;2023-09-12T09:10:16;25.80;98.90
4647;DHT22;2336;47.822;7.564;2023-09-12T09:12:46;25.90;98.50
4647;DHT22;2336;47.822;7.564;2023-09-12T09:15:23;26.10;99.10
4647;DHT22;2336;47.822;7.564;2023-09-12T09:17:52;26.10;98.60
4647;DHT22;2336;47.822;7.564;2023-09-12T09:20:23;26.10;99.20
4647;DHT22;2336;47.822;7.564;2023-09-12T09:22:58;26.20;98.30
4647;DHT22;2336;47.822;7.564;2023-09-12T09:25:26;26.30;97.80
4647;DHT22;2336;47.822;7.564;2023-09-12T09:27:54;26.40;98.60
4647;DHT22;2336;47.822;7.564;2023-09-12T09:30:40;26.40;97.90
4647;DHT22;2336;47.822;7.564;2023-09-12T09:33:07;26.40;98.20
4647;DHT22;2336;47.822;7.564;2023-09-12T09:35:34;26.50;97.70
4647;DHT22;2336;47.822;7.564;2023-09-12T09:38:03;26.60;97.20
4647;DHT22;2336;47.822;7.564;2023-09-12T09:40:29;26.70;97.50
4647;DHT22;2336;47.822;7.564;2023-09-12T09:42:59;26.80;96.40
4647;DHT22;2336;47.822;7.564;2023-09-12T09:45:26;26.80;96.50
4647;DHT22;2336;47.822;7.564;2023-09-12T09:47:57;26.90;96.40
4647;DHT22;2336;47.822;7.564;2023-09-12T09:50:25;27.00;96.20
4647;DHT22;2336;47.822;7.564;2023-09-12T09:52:54;27.20;95.40
4647;DHT22;2336;47.822;7.564;2023-09-12T09:55:21;27.20;96.10
4647;DHT22;2336;47.822;7.564;2023-09-12T09:57:48;27.40;96.20
4647;DHT22;2336;47.822;7.564;2023-09-12T10:00:20;27.60;94.70
4647;DHT22;2336;47.822;7.564;2023-09-12T10:02:50;27.70;94.90
4647;DHT22;2336;47.822;7.564;2023-09-12T10:05:17;27.70;94.80
4647;DHT22;2336;47.822;7.564;2023-09-12T10:07:47;27.70;95.10
4647;DHT22;2336;47.822;7.564;2023-09-12T10:10:16;27.70;95.00
4647;DHT22;2336;47.822;7.564;2023-09-12T10:12:49;27.80;95.30
4647;DHT22;2336;47.822;7.564;2023-09-12T10:15:18;27.90;94.70
4647;DHT22;2336;47.822;7.564;2023-09-12T10:17:47;28.10;94.40
4647;DHT22;2336;47.822;7.564;2023-09-12T10:20:21;28.20;93.60
4647;DHT22;2336;47.822;7.564;2023-09-12T10:22:52;28.30;93.90
4647;DHT22;2336;47.822;7.564;2023-09-12T10:25:23;28.30;93.30
4647;DHT22;2336;47.822;7.564;2023-09-12T10:27:50;28.30;93.40
4647;DHT22;2336;47.822;7.564;2023-09-12T10:30:21;28.40;92.80
4647;DHT22;2336;47.822;7.564;2023-09-12T10:32:48;28.40;92.90
4647;DHT22;2336;47.822;7.564;2023-09-12T10:35:16;28.40;92.50
4647;DHT22;2336;47.822;7.564;2023-09-12T10:37:44;28.50;93.00
4647;DHT22;2336;47.822;7.564;2023-09-12T10:40:13;28.70;93.00
4647;DHT22;2336;47.822;7.564;2023-09-12T10:42:42;28.70;92.50
4647;DHT22;2336;47.822;7.564;2023-09-12T10:45:09;28.80;92.70
4647;DHT22;2336;47.822;7.564;2023-09-12T10:47:38;28.90;92.80
4647;DHT22;2336;47.822;7.564;2023-09-12T10:50:06;29.10;92.40
4647;DHT22;2336;47.822;7.564;2023-09-12T10:52:36;29.20;92.50
4647;DHT22;2336;47.822;7.564;2023-09-12T10:55:06;29.30;91.30
4647;DHT22;2336;47.822;7.564;2023-09-12T10:58:02;29.40;91.80
4647;DHT22;2336;47.822;7.564;2023-09-12T11:00:29;29.60;91.10
4647;DHT22;2336;47.822;7.564;2023-09-12T11:03:00;29.50;91.10
4647;DHT22;2336;47.822;7.564;2023-09-12T11:05:53;29.50;92.00
4647;DHT22;2336;47.822;7.564;2023-09-12T11:08:20;29.40;90.90
4647;DHT22;2336;47.822;7.564;2023-09-12T11:11:17;29.30;91.20
4647;DHT22;2336;47.822;7.564;2023-09-12T11:13:45;29.50;90.70
4647;DHT22;2336;47.822;7.564;2023-09-12T11:16:13;29.60;91.20
4647;DHT22;2336;47.822;7.564;2023-09-12T11:19:16;29.60;90.60
4647;DHT22;2336;47.822;7.564;2023-09-12T11:21:44;29.50;89.70
4647;DHT22;2336;47.822;7.564;2023-09-12T11:24:12;29.60;90.80
4647;DHT22;2336;47.822;7.564;2023-09-12T11:26:56;29.70;91.30
4647;DHT22;2336;47.822;7.564;2023-09-12T11:29:27;29.80;90.00
4647;DHT22;2336;47.822;7.564;2023-09-12T11:31:56;29.90;90.00
4647;DHT22;2336;47.822;7.564;2023-09-12T11:34:29;30.00;88.30
4647;DHT22;2336;47.822;7.564;2023-09-12T11:36:58;30.10;82.10
4647;DHT22;2336;47.822;7.564;2023-09-12T11:39:29;30.10;82.90
4647;DHT22;2336;47.822;7.564;2023-09-12T11:41:57;30.20;81.60
4647;DHT22;2336;47.822;7.564;2023-09-12T11:44:24;30.20;82.70
4647;DHT22;2336;47.822;7.564;2023-09-12T11:46:52;30.30;82.10
4647;DHT22;2336;47.822;7.564;2023-09-12T11:49:20;30.30;81.60
4647;DHT22;2336;47.822;7.564;2023-09-12T11:51:49;30.20;80.00
4647;DHT22;2336;47.822;7.564;2023-09-12T11:54:18;30.30;80.80
4647;DHT22;2336;47.822;7.564;2023-09-12T11:56:47;30.30;79.80
4647;DHT22;2336;47.822;7.564;2023-09-12T11:59:14;30.30;80.10
4647;DHT22;2336;47.822;7.564;2023-09-12T12:01:42;30.40;78.90
4647;DHT22;2336;47.822;7.564;2023-09-12T12:04:09;30.30;77.90
4647;DHT22;2336;47.822;7.564;2023-09-12T12:06:36;30.20;82.50
4647;DHT22;2336;47.822;7.564;2023-09-12T12:09:04;30.30;79.60
4647;DHT22;2336;47.822;7.564;2023-09-12T12:11:31;30.40;80.30
4647;DHT22;2336;47.822;7.564;2023-09-12T12:13:58;30.50;80.30
4647;DHT22;2336;47.822;7.564;2023-09-12T12:16:34;30.50;80.70
4647;DHT22;2336;47.822;7.564;2023-09-12T12:19:01;30.70;81.60
4647;DHT22;2336;47.822;7.564;2023-09-12T12:21:28;30.80;79.30
4647;DHT22;2336;47.822;7.564;2023-09-12T12:24:00;30.80;79.40
4647;DHT22;2336;47.822;7.564;2023-09-12T12:26:28;30.80;79.70
4647;DHT22;2336;47.822;7.564;2023-09-12T12:28:56;30.70;80.10
4647;DHT22;2336;47.822;7.564;2023-09-12T12:31:23;30.50;77.40
4647;DHT22;2336;47.822;7.564;2023-09-12T12:33:53;30.70;77.80
4647;DHT22;2336;47.822;7.564;2023-09-12T12:36:20;30.70;76.50
4647;DHT22;2336;47.822;7.564;2023-09-12T12:38:49;30.70;77.20
4647;DHT22;2336;47.822;7.564;2023-09-12T12:41:17;30.90;80.10
4647;DHT22;2336;47.822;7.564;2023-09-12T12:43:50;31.00;77.00
4647;DHT22;2336;47.822;7.564;2023-09-12T12:46:18;31.20;76.10
4647;DHT22;2336;47.822;7.564;2023-09-12T12:48:47;31.30;74.80
4647;DHT22;2336;47.822;7.564;2023-09-12T12:51:16;31.30;68.50
4647;DHT22;2336;47.822;7.564;2023-09-12T12:53:45;31.40;73.70
4647;DHT22;2336;47.822;7.564;2023-09-12T12:56:14;31.50;72.40
4647;DHT22;2336;47.822;7.564;2023-09-12T12:58:46;31.50;69.70
4647;DHT22;2336;47.822;7.564;2023-09-12T13:01:14;31.40;72.30
4647;DHT22;2336;47.822;7.564;2023-09-12T13:03:41;31.30;68.60
4647;DHT22;2336;47.822;7.564;2023-09-12T13:06:08;31.20;69.70
4647;DHT22;2336;47.822;7.564;2023-09-12T13:08:39;31.30;68.60
4647;DHT22;2336;47.822;7.564;2023-09-12T13:11:07;30.90;67.20
4647;DHT22;2336;47.822;7.564;2023-09-12T13:13:34;30.90;69.70
4647;DHT22;2336;47.822;7.564;2023-09-12T13:16:02;31.00;68.40
4647;DHT22;2336;47.822;7.564;2023-09-12T13:18:33;31.10;69.70
4647;DHT22;2336;47.822;7.564;2023-09-12T13:21:00;31.10;70.20
4647;DHT22;2336;47.822;7.564;2023-09-12T13:23:27;31.10;68.70
4647;DHT22;2336;47.822;7.564;2023-09-12T13:25:54;31.40;67.00
4647;DHT22;2336;47.822;7.564;2023-09-12T13:28:22;31.30;65.90
4647;DHT22;2336;47.822;7.564;2023-09-12T13:30:51;31.10;65.60
4647;DHT22;2336;47.822;7.564;2023-09-12T13:33:17;31.30;67.50
4647;DHT22;2336;47.822;7.564;2023-09-12T13:35:46;31.30;69.30
4647;DHT22;2336;47.822;7.564;2023-09-12T13:38:13;31.30;68.80
4647;DHT22;2336;47.822;7.564;2023-09-12T13:40:43;31.50;68.30
4647;DHT22;2336;47.822;7.564;2023-09-12T13:43:10;31.60;65.80
4647;DHT22;2336;47.822;7.564;2023-09-12T13:45:37;31.60;66.00
4647;DHT22;2336;47.822;7.564;2023-09-12T13:48:05;31.60;67.10
4647;DHT22;2336;47.822;7.564;2023-09-12T13:50:32;31.70;68.00
4647;DHT22;2336;47.822;7.564;2023-09-12T13:53:01;31.70;69.00
4647;DHT22;2336;47.822;7.564;2023-09-12T13:55:32;31.60;68.70
4647;DHT22;2336;47.822;7.564;2023-09-12T13:58:01;31.60;68.20
4647;DHT22;2336;47.822;7.564;2023-09-12T14:00:28;31.60;70.00
4647;DHT22;2336;47.822;7.564;2023-09-12T14:02:55;31.60;68.50
4647;DHT22;2336;47.822;7.564;2023-09-12T14:05:22;31.50;69.30
4647;DHT22;2336;47.822;7.564;2023-09-12T14:07:49;31.50;69.10
4647;DHT22;2336;47.822;7.564;2023-09-12T14:10:17;31.60;69.60
4647;DHT22;2336;47.822;7.564;2023-09-12T14:12:44;31.40;68.40
4647;DHT22;2336;47.822;7.564;2023-09-12T14:15:12;31.40;69.10
4647;DHT22;2336;47.822;7.564;2023-09-12T14:17:39;31.50;68.70
4647;DHT22;2336;47.822;7.564;2023-09-12T14:20:07;31.30;68.10
4647;DHT22;2336;47.822;7.564;2023-09-12T14:22:34;31.20;67.60
4647;DHT22;2336;47.822;7.564;2023-09-12T14:25:01;31.20;69.30
4647;DHT22;2336;47.822;7.564;2023-09-12T14:27:29;31.30;69.10
4647;DHT22;2336;47.822;7.564;2023-09-12T14:29:56;31.30;68.40
4647;DHT22;2336;47.822;7.564;2023-09-12T14:32:24;31.30;70.10
4647;DHT22;2336;47.822;7.564;2023-09-12T14:34:51;31.30;68.50
4647;DHT22;2336;47.822;7.564;2023-09-12T14:37:18;31.20;68.50
4647;DHT22;2336;47.822;7.564;2023-09-12T14:39:45;31.30;69.20
4647;DHT22;2336;47.822;7.564;2023-09-12T14:42:12;31.30;68.50
4647;DHT22;2336;47.822;7.564;2023-09-12T14:44:40;31.30;70.20
4647;DHT22;2336;47.822;7.564;2023-09-12T14:47:07;31.20;68.00
4647;DHT22;2336;47.822;7.564;2023-09-12T14:49:34;31.10;67.80
4647;DHT22;2336;47.822;7.564;2023-09-12T14:52:01;31.20;69.20
4647;DHT22;2336;47.822;7.564;2023-09-12T14:54:28;31.20;69.70
4647;DHT22;2336;47.822;7.564;2023-09-12T14:56:54;31.20;69.40
4647;DHT22;2336;47.822;7.564;2023-09-12T14:59:21;31.40;67.90
4647;DHT22;2336;47.822;7.564;2023-09-12T15:01:50;31.40;70.30
4647;DHT22;2336;47.822;7.564;2023-09-12T15:04:16;31.20;68.90
4647;DHT22;2336;47.822;7.564;2023-09-12T15:06:43;31.10;68.90
4647;DHT22;2336;47.822;7.564;2023-09-12T15:09:10;31.20;68.20
4647;DHT22;2336;47.822;7.564;2023-09-12T15:11:37;31.30;68.40
4647;DHT22;2336;47.822;7.564;2023-09-12T15:14:04;31.30;69.00
4647;DHT22;2336;47.822;7.564;2023-09-12T15:16:30;31.20;69.80
4647;DHT22;2336;47.822;7.564;2023-09-12T15:19:01;31.20;68.50
4647;DHT22;2336;47.822;7.564;2023-09-12T15:21:28;31.20;67.60
4647;DHT22;2336;47.822;7.564;2023-09-12T15:23:55;31.10;68.20
4647;DHT22;2336;47.822;7.564;2023-09-12T15:26:22;31.20;67.40
4647;DHT22;2336;47.822;7.564;2023-09-12T15:28:49;31.10;67.80
4647;DHT22;2336;47.822;7.564;2023-09-12T15:31:15;31.00;67.60
4647;DHT22;2336;47.822;7.564;2023-09-12T15:33:42;31.00;68.40
4647;DHT22;2336;47.822;7.564;2023-09-12T15:36:10;31.00;68.20
4647;DHT22;2336;47.822;7.564;2023-09-12T15:38:37;31.00;67.60
4647;DHT22;2336;47.822;7.564;2023-09-12T15:41:04;31.20;69.70
4647;DHT22;2336;47.822;7.564;2023-09-12T15:43:33;31.10;67.80
4647;DHT22;2336;47.822;7.564;2023-09-12T15:46:00;31.20;67.90
4647;DHT22;2336;47.822;7.564;2023-09-12T15:48:27;31.20;67.30
4647;DHT22;2336;47.822;7.564;2023-09-12T15:50:54;31.10;66.30
4647;DHT22;2336;47.822;7.564;2023-09-12T15:53:23;31.10;67.60
4647;DHT22;2336;47.822;7.564;2023-09-12T15:55:50;31.10;67.20
4647;DHT22;2336;47.822;7.564;2023-09-12T15:58:17;31.10;67.90
4647;DHT22;2336;47.822;7.564;2023-09-12T16:00:44;31.00;68.40
4647;DHT22;2336;47.822;7.564;2023-09-12T16:03:11;31.00;67.90
4647;DHT22;2336;47.822;7.564;2023-09-12T16:05:38;31.00;68.70
4647;DHT22;2336;47.822;7.564;2023-09-12T16:08:05;30.90;67.90